createdAt,value
2023-01-30T00:00:58.137Z,21.50
2023-01-30T00:03:25.444Z,25.87
2023-01-30T00:05:52.881Z,22.83
2023-01-30T00:08:20.039Z,22.37
2023-01-30T00:10:46.888Z,22.63
2023-01-30T00:13:14.388Z,21.43
2023-01-30T00:15:43.081Z,22.40
2023-01-30T00:18:10.286Z,24.53
2023-01-30T00:20:38.117Z,23.47
2023-01-30T00:23:05.612Z,22.10
2023-01-30T00:25:32.368Z,23.87
2023-01-30T00:28:00.444Z,23.20
2023-01-30T00:30:27.084Z,23.43
2023-01-30T00:32:55.577Z,23.20
2023-01-30T00:35:22.081Z,22.97
2023-01-30T00:37:48.792Z,22.90
2023-01-30T00:40:15.221Z,20.90
2023-01-30T00:42:44.020Z,21.53
2023-01-30T00:45:11.658Z,21.30
2023-01-30T00:47:38.531Z,20.97
2023-01-30T00:50:05.642Z,22.00
2023-01-30T00:52:32.053Z,20.57
2023-01-30T00:54:58.539Z,20.73
2023-01-30T00:57:24.981Z,23.47
2023-01-30T00:59:51.583Z,23.07
2023-01-30T01:02:18.138Z,22.67
2023-01-30T01:04:44.607Z,24.33
2023-01-30T01:07:12.330Z,24.40
2023-01-30T01:09:39.340Z,25.23
2023-01-30T01:12:06.862Z,23.43
2023-01-30T01:14:33.892Z,23.67
2023-01-30T01:17:00.566Z,23.87
2023-01-30T01:19:28.258Z,22.93
2023-01-30T01:21:54.869Z,21.77
2023-01-30T01:24:21.309Z,21.23
2023-01-30T01:26:49.052Z,24.00
2023-01-30T01:29:17.225Z,22.10
2023-01-30T01:31:44.718Z,20.27
2023-01-30T01:34:12.026Z,19.20
2023-01-30T01:36:54.922Z,20.50
2023-01-30T01:39:21.853Z,20.73
2023-01-30T01:41:48.264Z,19.67
2023-01-30T01:44:14.957Z,20.20
2023-01-30T01:46:55.706Z,19.50
2023-01-30T01:49:35.101Z,18.08
2023-01-30T01:52:05.716Z,19.57
2023-01-30T01:54:47.245Z,19.23
2023-01-30T01:57:40.179Z,19.77
2023-01-30T02:00:08.296Z,18.70
2023-01-30T02:02:37.179Z,19.07
2023-01-30T02:05:04.723Z,19.03
2023-01-30T02:07:41.277Z,23.67
2023-01-30T02:10:12.785Z,22.23
2023-01-30T02:12:41.507Z,22.27
2023-01-30T02:15:08.901Z,19.97
2023-01-30T02:17:35.482Z,19.50
2023-01-30T02:20:25.155Z,19.77
2023-01-30T02:23:07.953Z,18.93
2023-01-30T02:25:58.500Z,18.17
2023-01-30T02:28:43.954Z,21.70
2023-01-30T02:31:47.483Z,20.30
2023-01-30T02:34:41.933Z,19.90
2023-01-30T02:37:31.799Z,18.37
2023-01-30T02:40:23.515Z,16.33
2023-01-30T02:42:52.775Z,17.43
2023-01-30T02:45:42.111Z,17.70
2023-01-30T02:48:24.778Z,19.00
2023-01-30T02:50:59.150Z,18.23
2023-01-30T02:53:26.062Z,18.90
2023-01-30T02:55:52.503Z,19.10
2023-01-30T02:58:22.952Z,16.50
2023-01-30T03:01:27.210Z,17.75
2023-01-30T03:04:22.147Z,18.23
2023-01-30T03:07:01.471Z,18.83
2023-01-30T03:09:33.535Z,19.57
2023-01-30T03:12:10.054Z,17.97
2023-01-30T03:14:51.690Z,18.13
2023-01-30T03:17:22.469Z,18.67
2023-01-30T03:22:15.529Z,19.20
2023-01-30T03:24:42.192Z,18.47
2023-01-30T03:27:13.210Z,22.07
2023-01-30T03:29:40.451Z,21.57
2023-01-30T03:32:07.369Z,21.13
2023-01-30T03:34:33.940Z,18.50
2023-01-30T03:37:02.098Z,18.97
2023-01-30T03:39:28.857Z,19.50
2023-01-30T03:41:55.583Z,18.40
2023-01-30T03:44:22.120Z,17.63
2023-01-30T03:46:48.850Z,17.43
2023-01-30T03:49:15.655Z,18.00
2023-01-30T03:51:42.115Z,15.63
2023-01-30T03:54:08.626Z,15.90
2023-01-30T03:56:35.025Z,17.53
2023-01-30T03:59:01.628Z,16.80
2023-01-30T04:01:28.600Z,15.13
2023-01-30T04:03:58.166Z,15.73
2023-01-30T04:06:24.697Z,15.57
2023-01-30T04:08:55.237Z,15.63
2023-01-30T04:11:21.900Z,14.75
2023-01-30T04:13:48.667Z,15.70
2023-01-30T04:16:17.915Z,14.33
2023-01-30T04:18:44.625Z,14.80
2023-01-30T04:21:11.555Z,15.27
2023-01-30T04:23:38.023Z,15.57
2023-01-30T04:26:05.756Z,16.30
2023-01-30T04:28:32.715Z,15.83
2023-01-30T04:30:59.436Z,15.87
2023-01-30T04:33:26.965Z,15.77
2023-01-30T04:35:54.966Z,16.03
2023-01-30T04:38:22.845Z,15.30
2023-01-30T04:40:50.427Z,14.90
2023-01-30T04:43:17.091Z,13.23
2023-01-30T04:45:47.092Z,14.03
2023-01-30T04:48:13.720Z,15.00
2023-01-30T04:50:41.672Z,14.03
2023-01-30T04:53:08.583Z,13.93
2023-01-30T04:55:35.380Z,13.87
2023-01-30T04:58:01.897Z,14.47
2023-01-30T05:00:29.048Z,13.43
2023-01-30T05:02:55.504Z,13.60
2023-01-30T05:05:26.738Z,13.63
2023-01-30T05:07:54.824Z,12.80
2023-01-30T05:10:21.980Z,11.43
2023-01-30T05:12:48.473Z,12.87
2023-01-30T05:15:15.251Z,11.77
2023-01-30T05:17:44.389Z,12.27
2023-01-30T05:20:13.442Z,12.20
2023-01-30T05:22:40.038Z,12.87
2023-01-30T05:25:07.126Z,11.90
2023-01-30T05:27:33.646Z,11.73
2023-01-30T05:30:00.293Z,12.03
2023-01-30T05:32:26.749Z,13.30
2023-01-30T05:34:53.692Z,12.07
2023-01-30T05:37:20.287Z,12.67
2023-01-30T05:39:46.931Z,12.10
2023-01-30T05:42:15.710Z,12.40
2023-01-30T05:44:42.312Z,11.97
2023-01-30T05:47:08.848Z,13.87
2023-01-30T05:49:35.254Z,12.00
2023-01-30T05:52:01.843Z,12.83
2023-01-30T05:54:28.469Z,12.43
2023-01-30T05:56:55.543Z,11.17
2023-01-30T05:59:22.047Z,10.53
2023-01-30T06:01:48.384Z,12.07
2023-01-30T06:04:14.822Z,10.97
2023-01-30T06:06:41.291Z,10.83
2023-01-30T06:09:10.545Z,11.90
2023-01-30T06:11:37.183Z,11.40
2023-01-30T06:14:03.860Z,10.77
2023-01-30T06:16:30.460Z,10.93
2023-01-30T06:18:57.354Z,11.70
2023-01-30T06:21:23.885Z,11.10
2023-01-30T06:23:50.443Z,11.07
2023-01-30T06:26:16.995Z,10.20
2023-01-30T06:28:43.613Z,11.07
2023-01-30T06:31:10.172Z,11.97
2023-01-30T06:33:36.794Z,10.43
2023-01-30T06:36:03.869Z,11.60
2023-01-30T06:38:30.548Z,12.33
2023-01-30T06:40:57.135Z,10.00
2023-01-30T06:43:23.763Z,10.17
2023-01-30T06:45:50.335Z,10.47
2023-01-30T06:48:17.016Z,9.77
2023-01-30T06:50:46.623Z,12.00
2023-01-30T06:53:13.091Z,9.87
2023-01-30T06:55:40.217Z,10.87
2023-01-30T06:58:09.423Z,10.33
2023-01-30T07:00:38.120Z,11.43
2023-01-30T07:03:04.736Z,10.07
2023-01-30T07:05:31.271Z,9.37
2023-01-30T07:07:57.757Z,9.97
2023-01-30T07:10:24.480Z,8.53
2023-01-30T07:12:51.055Z,10.03
2023-01-30T07:15:18.008Z,9.90
2023-01-30T07:17:44.611Z,10.53
2023-01-30T07:20:11.438Z,9.60
2023-01-30T07:22:38.128Z,9.23
2023-01-30T07:25:06.498Z,9.10
2023-01-30T07:27:33.882Z,9.80
2023-01-30T07:30:01.865Z,9.40
2023-01-30T07:32:28.614Z,10.03
2023-01-30T07:34:55.156Z,8.90
2023-01-30T07:37:21.596Z,9.93
2023-01-30T07:39:48.099Z,8.77
2023-01-30T07:42:14.799Z,9.00
2023-01-30T07:44:41.325Z,9.83
2023-01-30T07:47:08.307Z,10.03
2023-01-30T07:49:34.844Z,8.87
2023-01-30T07:52:01.288Z,8.60
2023-01-30T07:54:27.776Z,8.63
2023-01-30T07:56:54.367Z,9.77
2023-01-30T07:59:20.769Z,9.63
2023-01-30T08:01:47.505Z,9.20
2023-01-30T08:04:14.009Z,8.87
2023-01-30T08:06:41.387Z,9.20
2023-01-30T08:09:08.043Z,8.00
2023-01-30T08:11:36.025Z,8.77
2023-01-30T08:14:03.164Z,9.03
2023-01-30T08:16:30.205Z,8.57
2023-01-30T08:18:56.660Z,9.53
2023-01-30T08:21:24.304Z,9.57
2023-01-30T08:23:50.853Z,8.90
2023-01-30T08:26:18.638Z,9.83
2023-01-30T08:28:45.194Z,8.97
2023-01-30T08:31:13.831Z,9.20
2023-01-30T08:33:40.483Z,9.43
2023-01-30T08:36:07.407Z,8.80
2023-01-30T08:38:33.955Z,8.83
2023-01-30T08:41:00.633Z,9.03
2023-01-30T08:43:28.287Z,7.93
2023-01-30T08:45:55.443Z,9.03
2023-01-30T08:48:22.442Z,8.20
2023-01-30T08:50:55.239Z,7.23
2023-01-30T08:53:22.519Z,8.83
2023-01-30T08:55:53.101Z,7.10
2023-01-30T08:58:20.831Z,7.72
2023-01-30T09:00:50.642Z,7.77
2023-01-30T09:03:18.473Z,6.05
2023-01-30T09:05:45.261Z,7.13
2023-01-30T09:08:12.501Z,7.67
2023-01-30T09:10:39.041Z,7.73
2023-01-30T09:13:07.808Z,7.87
2023-01-30T09:15:34.465Z,6.87
2023-01-30T09:18:02.056Z,7.57
2023-01-30T09:20:28.551Z,6.97
2023-01-30T09:22:56.216Z,7.10
2023-01-30T09:25:22.826Z,7.20
2023-01-30T09:27:50.492Z,6.97
2023-01-30T09:30:17.842Z,7.73
2023-01-30T09:32:46.008Z,6.67
2023-01-30T09:35:12.476Z,7.10
2023-01-30T09:37:39.127Z,7.73
2023-01-30T09:40:06.475Z,7.07
2023-01-30T09:42:53.684Z,8.27
2023-01-30T09:45:22.574Z,7.50
2023-01-30T09:48:23.618Z,6.72
2023-01-30T09:51:18.254Z,6.27
2023-01-30T09:54:15.659Z,6.93
2023-01-30T09:56:42.573Z,6.93
2023-01-30T10:02:38.778Z,6.20
2023-01-30T10:05:06.609Z,7.23
2023-01-30T10:08:01.626Z,6.77
2023-01-30T10:11:10.451Z,6.20
2023-01-30T10:13:41.033Z,6.47
2023-01-30T10:16:20.157Z,6.22
2023-01-30T10:19:26.175Z,6.10
2023-01-30T10:22:32.820Z,6.33
2023-01-30T10:25:06.003Z,5.57
2023-01-30T10:27:35.116Z,5.43
2023-01-30T10:30:05.990Z,6.20
2023-01-30T10:35:22.279Z,5.63
2023-01-30T10:38:19.579Z,6.43
2023-01-30T10:40:54.857Z,5.37
2023-01-30T10:43:47.496Z,5.77
2023-01-30T10:46:22.579Z,5.63
2023-01-30T10:48:52.733Z,5.37
2023-01-30T10:51:38.335Z,6.95
2023-01-30T10:54:28.324Z,6.00
2023-01-30T10:57:42.066Z,5.17
2023-01-30T11:00:27.059Z,5.23
2023-01-30T11:03:02.145Z,4.80
2023-01-30T11:05:39.121Z,6.10
2023-01-30T11:08:18.204Z,4.80
2023-01-30T11:10:44.759Z,4.70
2023-01-30T11:13:21.010Z,4.90
2023-01-30T11:15:50.941Z,3.80
2023-01-30T11:19:14.017Z,4.10
2023-01-30T11:21:16.726Z,3.53
2023-01-30T11:23:44.189Z,3.63
2023-01-30T11:26:29.495Z,3.43
2023-01-30T11:28:59.711Z,3.70
2023-01-30T11:31:40.932Z,3.30
2023-01-30T11:34:17.105Z,3.60
2023-01-30T11:36:44.354Z,3.77
2023-01-30T11:39:13.720Z,3.30
2023-01-30T11:41:56.197Z,3.70
2023-01-30T11:44:27.549Z,4.15
2023-01-30T11:46:55.009Z,3.53
2023-01-30T11:49:46.765Z,3.20
2023-01-30T11:52:10.898Z,3.67
2023-01-30T11:54:41.687Z,3.40
2023-01-30T11:57:14.189Z,3.40
2023-01-30T11:59:59.245Z,3.10
2023-01-30T12:02:34.480Z,4.07
2023-01-30T12:05:34.458Z,4.13
2023-01-30T12:08:43.108Z,4.10
2023-01-30T12:11:38.764Z,3.43
2023-01-30T12:14:33.955Z,3.73
2023-01-30T12:17:11.771Z,3.72
2023-01-30T12:20:14.152Z,3.27
2023-01-30T12:23:22.414Z,3.97
2023-01-30T12:25:57.230Z,3.53
2023-01-30T12:28:41.513Z,5.68
2023-01-30T12:31:18.989Z,4.35
2023-01-30T12:33:48.094Z,4.03
2023-01-30T12:36:20.484Z,3.73
2023-01-30T12:38:55.876Z,3.93
2023-01-30T12:41:37.587Z,4.00
2023-01-30T12:44:22.523Z,4.70
2023-01-30T12:47:00.018Z,3.77
2023-01-30T12:49:35.702Z,5.50
2023-01-30T12:52:39.551Z,5.17
2023-01-30T12:55:36.723Z,4.67
2023-01-30T12:58:05.551Z,4.63
2023-01-30T13:01:04.925Z,4.33
2023-01-30T13:04:19.001Z,4.97
2023-01-30T13:07:02.211Z,4.97
2023-01-30T13:09:37.731Z,4.30
2023-01-30T13:12:20.147Z,7.93
2023-01-30T13:15:00.831Z,10.47
2023-01-30T13:17:54.718Z,9.40
2023-01-30T13:20:48.336Z,6.50
2023-01-30T13:23:32.984Z,6.10
2023-01-30T13:26:09.044Z,6.97
2023-01-30T13:28:44.184Z,6.30
2023-01-30T13:31:16.068Z,5.27
2023-01-30T13:33:45.632Z,18.43
2023-01-30T13:36:21.233Z,10.77
2023-01-30T13:39:36.603Z,9.20
2023-01-30T13:42:37.435Z,11.20
2023-01-30T13:45:08.532Z,12.47
2023-01-30T13:47:48.939Z,9.60
2023-01-30T13:50:41.560Z,12.30
2023-01-30T13:53:33.955Z,9.57
2023-01-30T13:56:40.938Z,11.73
2023-01-30T13:59:22.168Z,12.73
2023-01-30T14:02:07.685Z,10.82
2023-01-30T14:04:40.570Z,9.73
2023-01-30T14:07:29.707Z,9.00
2023-01-30T14:10:17.934Z,8.47
2023-01-30T14:12:46.584Z,7.67
2023-01-30T14:15:15.936Z,6.73
2023-01-30T14:18:04.751Z,7.10
2023-01-30T14:20:36.902Z,13.20
2023-01-30T14:23:21.193Z,11.43
2023-01-30T14:25:52.626Z,17.30
2023-01-30T14:28:19.151Z,18.87
2023-01-30T14:30:45.655Z,13.17
2023-01-30T14:33:21.215Z,13.20
2023-01-30T14:36:02.811Z,12.23
2023-01-30T14:38:34.488Z,7.07
2023-01-30T14:41:01.049Z,7.03
2023-01-30T14:43:42.884Z,7.33
2023-01-30T14:46:18.211Z,6.70
2023-01-30T14:48:47.776Z,7.53
2023-01-30T14:51:20.403Z,6.57
2023-01-30T14:54:14.872Z,7.00
2023-01-30T14:57:02.952Z,6.87
2023-01-30T14:59:34.340Z,6.93
2023-01-30T15:02:02.982Z,6.17
2023-01-30T15:04:33.268Z,5.90
2023-01-30T15:07:06.423Z,6.20
2023-01-30T15:09:33.943Z,6.80
2023-01-30T15:12:37.163Z,6.70
2023-01-30T15:15:38.228Z,5.90
2023-01-30T15:18:42.295Z,5.07
2023-01-30T15:21:33.469Z,5.37
2023-01-30T15:24:21.234Z,5.17
2023-01-30T15:26:53.756Z,5.07
2023-01-30T15:29:33.132Z,5.50
2023-01-30T15:32:17.637Z,5.17
2023-01-30T15:35:10.438Z,4.00
2023-01-30T15:37:40.325Z,5.27
2023-01-30T15:40:16.283Z,5.87
2023-01-30T15:42:49.132Z,5.43
2023-01-30T15:45:34.540Z,4.70
2023-01-30T15:48:29.006Z,5.27
2023-01-30T15:51:00.200Z,5.20
2023-01-30T15:53:40.125Z,5.77
2023-01-30T15:56:10.601Z,5.30
2023-01-30T15:58:42.403Z,6.00
2023-01-30T16:01:11.361Z,4.57
2023-01-30T16:03:42.766Z,6.03
2023-01-30T16:06:25.288Z,5.03
2023-01-30T16:09:03.516Z,4.87
2023-01-30T16:11:34.644Z,5.87
2023-01-30T16:14:01.250Z,5.50
2023-01-30T16:16:29.161Z,5.30
2023-01-30T16:19:03.002Z,5.83
2023-01-30T16:21:36.923Z,5.40
2023-01-30T16:24:06.640Z,5.77
2023-01-30T16:26:36.245Z,5.83
2023-01-30T16:29:06.342Z,5.30
2023-01-30T16:31:35.833Z,6.13
2023-01-30T16:34:02.822Z,5.40
2023-01-30T16:36:32.964Z,5.60
2023-01-30T16:38:59.436Z,5.25
2023-01-30T16:41:36.285Z,5.60
2023-01-30T16:44:42.024Z,4.47
2023-01-30T16:47:23.515Z,5.20
2023-01-30T16:49:53.432Z,5.30
2023-01-30T16:52:24.980Z,5.13
2023-01-30T16:54:54.251Z,5.03
2023-01-30T16:57:28.480Z,5.50
2023-01-30T16:59:56.465Z,4.73
2023-01-30T17:02:34.112Z,5.27
2023-01-30T17:05:27.262Z,5.50
2023-01-30T17:07:55.258Z,5.40
2023-01-30T17:10:28.013Z,7.20
2023-01-30T17:12:56.292Z,6.43
2023-01-30T17:15:27.570Z,7.40
2023-01-30T17:17:54.076Z,7.77
2023-01-30T17:20:20.730Z,5.93
2023-01-30T17:22:50.412Z,5.97
2023-01-30T17:25:41.763Z,5.33
2023-01-30T17:28:15.784Z,5.43
2023-01-30T17:30:42.787Z,6.00
2023-01-30T17:33:09.230Z,5.67
2023-01-30T17:35:35.844Z,5.60
2023-01-30T17:38:06.316Z,6.13
2023-01-30T17:40:37.971Z,5.88
2023-01-30T17:43:06.440Z,6.40
2023-01-30T17:45:34.131Z,5.73
2023-01-30T17:48:00.885Z,5.67
2023-01-30T17:50:27.404Z,4.73
2023-01-30T17:52:54.102Z,4.63
2023-01-30T17:55:21.105Z,4.53
2023-01-30T17:57:48.567Z,6.33
2023-01-30T18:00:18.407Z,7.33
2023-01-30T18:02:45.380Z,5.40
2023-01-30T18:05:13.502Z,8.60
2023-01-30T18:07:41.026Z,8.90
2023-01-30T18:10:11.992Z,9.30
2023-01-30T18:12:40.114Z,7.77
2023-01-30T18:15:07.255Z,8.17
2023-01-30T18:17:37.036Z,9.00
2023-01-30T18:20:03.665Z,9.43
2023-01-30T18:22:30.059Z,8.10
2023-01-30T18:24:56.543Z,7.97
2023-01-30T18:27:22.960Z,8.03
2023-01-30T18:29:50.646Z,6.60
2023-01-30T18:32:17.068Z,6.20
2023-01-30T18:34:43.933Z,7.53
2023-01-30T18:37:10.450Z,7.33
2023-01-30T18:39:38.842Z,7.27
2023-01-30T18:42:05.507Z,6.07
2023-01-30T18:44:32.288Z,6.20
2023-01-30T18:46:58.919Z,6.00
2023-01-30T18:49:26.384Z,6.20
2023-01-30T18:51:55.618Z,5.88
2023-01-30T18:54:22.089Z,6.00
2023-01-30T18:56:48.677Z,6.47
2023-01-30T18:59:15.167Z,6.30
2023-01-30T19:01:41.859Z,6.03
2023-01-30T19:04:11.055Z,6.27
2023-01-30T19:06:45.125Z,5.73
2023-01-30T19:09:16.675Z,5.43
2023-01-30T19:11:43.089Z,6.57
2023-01-30T19:14:09.660Z,5.83
2023-01-30T19:16:38.828Z,9.47
2023-01-30T19:19:06.740Z,8.30
2023-01-30T19:21:33.926Z,8.50
2023-01-30T19:24:04.704Z,7.73
2023-01-30T19:28:57.571Z,6.90
2023-01-30T19:31:24.370Z,7.10
2023-01-30T19:33:56.394Z,7.77
2023-01-30T19:36:25.282Z,7.57
2023-01-30T19:38:52.509Z,6.90
2023-01-30T19:41:25.220Z,7.37
2023-01-30T19:43:53.704Z,7.47
2023-01-30T19:46:20.701Z,6.43
2023-01-30T19:48:47.938Z,6.13
2023-01-30T19:51:17.849Z,6.30
2023-01-30T19:53:47.457Z,6.70
2023-01-30T19:56:13.970Z,6.40
2023-01-30T19:58:40.623Z,6.90
2023-01-30T20:01:14.088Z,6.13
2023-01-30T20:03:42.135Z,7.00
2023-01-30T20:06:21.221Z,6.93
2023-01-30T20:08:49.633Z,7.77
2023-01-30T20:11:18.254Z,7.23
2023-01-30T20:13:45.971Z,7.27
2023-01-30T20:16:14.830Z,7.13
2023-01-30T20:18:41.789Z,8.00
2023-01-30T20:21:09.446Z,8.67
2023-01-30T20:23:36.658Z,33.23
2023-01-30T20:26:07.403Z,11.03
2023-01-30T20:28:34.750Z,7.97
2023-01-30T20:31:08.445Z,8.57
2023-01-30T20:33:35.503Z,11.57
2023-01-30T20:36:04.233Z,10.03
2023-01-30T20:38:33.303Z,11.10
2023-01-30T20:41:06.120Z,8.23
2023-01-30T20:43:33.975Z,8.20
2023-01-30T20:46:08.881Z,6.90
2023-01-30T20:48:37.366Z,8.20
2023-01-30T20:51:15.923Z,10.60
2023-01-30T20:54:04.201Z,9.90
2023-01-30T20:56:34.918Z,7.17
2023-01-30T20:59:03.429Z,6.82
2023-01-30T21:01:29.963Z,6.70
2023-01-30T21:03:57.167Z,7.18
2023-01-30T21:06:41.263Z,6.23
2023-01-30T21:09:12.555Z,7.50
2023-01-30T21:11:39.618Z,7.70
2023-01-30T21:14:06.337Z,7.73
2023-01-30T21:16:34.595Z,7.10
2023-01-30T21:19:04.508Z,6.67
2023-01-30T21:21:37.664Z,7.75
2023-01-30T21:24:09.539Z,7.47
2023-01-30T21:26:38.517Z,9.02
2023-01-30T21:29:07.007Z,11.40
2023-01-30T21:31:34.724Z,20.27
2023-01-30T21:34:01.666Z,33.80
2023-01-30T21:36:28.752Z,25.47
2023-01-30T21:38:55.553Z,23.40
2023-01-30T21:41:29.812Z,20.50
2023-01-30T21:43:56.580Z,18.00
2023-01-30T21:46:23.303Z,15.07
2023-01-30T21:48:49.972Z,11.97
2023-01-30T21:51:17.357Z,10.20
2023-01-30T21:53:44.021Z,8.63
2023-01-30T21:56:12.758Z,8.07
2023-01-30T21:58:39.150Z,8.40
2023-01-30T22:01:07.570Z,7.90
2023-01-30T22:03:35.629Z,8.07
2023-01-30T22:06:02.065Z,8.47
2023-01-30T22:08:28.822Z,7.83
2023-01-30T22:11:06.387Z,8.03
2023-01-30T22:13:34.270Z,8.30
2023-01-30T22:16:03.001Z,8.40
2023-01-30T22:18:29.880Z,8.30
2023-01-30T22:21:08.506Z,8.40
2023-01-30T22:23:38.586Z,8.20
2023-01-30T22:26:06.209Z,9.40
2023-01-30T22:28:33.513Z,7.93
2023-01-30T22:31:05.786Z,8.57
2023-01-30T22:33:33.088Z,7.80
2023-01-30T22:36:00.859Z,7.97
2023-01-30T22:38:27.807Z,8.07
2023-01-30T22:41:02.820Z,7.57
2023-01-30T22:43:30.573Z,7.50
2023-01-30T22:46:06.143Z,7.90
2023-01-30T22:48:33.463Z,7.07
2023-01-30T22:51:04.055Z,8.33
2023-01-30T22:53:38.396Z,8.02
2023-01-30T22:56:10.601Z,6.57
2023-01-30T22:58:38.205Z,7.90
2023-01-30T23:01:05.113Z,7.33
2023-01-30T23:03:32.278Z,7.47
2023-01-30T23:06:00.067Z,7.10
2023-01-30T23:08:30.194Z,8.50
2023-01-30T23:10:58.302Z,6.97
2023-01-30T23:13:27.218Z,6.70
2023-01-30T23:15:53.622Z,7.53
2023-01-30T23:18:20.007Z,6.63
2023-01-30T23:20:46.843Z,7.57
2023-01-30T23:23:13.435Z,8.40
2023-01-30T23:25:42.407Z,8.07
2023-01-30T23:28:09.151Z,6.83
2023-01-30T23:30:39.089Z,6.70
2023-01-30T23:33:05.605Z,6.60
2023-01-30T23:35:32.873Z,5.70
2023-01-30T23:37:59.274Z,6.50
2023-01-30T23:40:25.739Z,6.37
2023-01-30T23:42:53.418Z,6.57
2023-01-30T23:45:20.292Z,7.20
2023-01-30T23:47:46.899Z,7.00
2023-01-30T23:50:13.456Z,6.70
2023-01-30T23:52:39.951Z,6.60
2023-01-30T23:55:06.939Z,6.77
2023-01-30T23:57:33.380Z,7.83
2023-01-30T23:59:59.837Z,6.43
